Time;durP1;ratioP1;P1;durP2;ratioP2;P2;SDS_P1;SDS_P2;PMS_P1;PMS_P2;Temp;Humidity;BMP_temperature;BMP_pressure;BME280_temperature;BME280_humidity;BME280_pressure;Samples;Min_cycle;Max_cycle;Signal;HPM_P1;HPM_P2
2021/03/04 00:01:03;;;;;;;33.90;31.20;;;9.20;69.70;;;;;;5109063;28;20203;-79
2021/03/04 00:03:29;;;;;;;34.92;32.25;;;9.20;70.10;;;;;;5105540;28;20287;-79
2021/03/04 00:05:56;;;;;;;37.60;33.78;;;9.10;70.40;;;;;;5104862;28;20712;-79
2021/03/04 00:08:22;;;;;;;35.17;32.25;;;9.10;75.70;;;;;;5104659;28;20292;-79
2021/03/04 00:10:49;;;;;;;35.10;32.45;;;9.10;73.90;;;;;;5105935;28;20306;-79
2021/03/04 00:13:15;;;;;;;34.95;32.05;;;9.00;73.00;;;;;;5107979;28;20196;-79
2021/03/04 00:15:42;;;;;;;34.40;31.92;;;9.00;71.20;;;;;;5106589;28;20673;-79
2021/03/04 00:18:08;;;;;;;33.95;31.23;;;9.10;70.90;;;;;;5106623;28;20343;-79
2021/03/04 00:20:35;;;;;;;33.95;31.20;;;9.20;70.60;;;;;;5107700;28;20299;-79
2021/03/04 00:23:03;;;;;;;33.67;31.08;;;9.10;70.80;;;;;;5107703;28;20202;-79
2021/03/04 00:25:31;;;;;;;34.05;31.55;;;9.10;70.50;;;;;;5104835;28;20195;-79
2021/03/04 00:27:57;;;;;;;33.95;31.40;;;9.00;70.30;;;;;;5103755;28;20259;-79
2021/03/04 00:30:25;;;;;;;36.00;32.80;;;9.00;70.30;;;;;;5104377;28;20242;-79
2021/03/04 00:32:51;;;;;;;33.30;30.90;;;9.00;70.20;;;;;;5104994;28;20192;-79
2021/03/04 00:35:17;;;;;;;33.97;31.45;;;8.90;70.70;;;;;;5106560;28;20195;-79
2021/03/04 00:37:44;;;;;;;31.95;29.17;;;8.80;71.20;;;;;;5098932;28;20286;-79
2021/03/04 00:40:14;;;;;;;31.90;29.60;;;8.70;71.60;;;;;;5094712;28;20703;-79
2021/03/04 00:42:41;;;;;;;33.78;31.13;;;8.70;71.80;;;;;;5094796;28;20195;-79
2021/03/04 00:45:09;;;;;;;33.90;31.30;;;8.80;73.00;;;;;;5094593;28;20198;-79
2021/03/04 00:47:36;;;;;;;33.85;31.33;;;8.70;79.10;;;;;;5094645;28;20652;-79
2021/03/04 00:50:02;;;;;;;34.95;32.20;;;8.80;77.90;;;;;;5094303;28;20276;-79
2021/03/04 00:52:29;;;;;;;34.75;31.90;;;8.80;74.30;;;;;;5094394;28;20561;-79
2021/03/04 00:54:55;;;;;;;32.05;29.80;;;8.80;72.10;;;;;;5094499;28;20199;-79
2021/03/04 00:57:22;;;;;;;35.03;32.10;;;8.80;70.40;;;;;;5094232;28;20736;-79
2021/03/04 00:59:49;;;;;;;33.10;30.52;;;8.90;69.90;;;;;;5094287;28;20215;-79
2021/03/04 01:02:15;;;;;;;33.30;30.65;;;9.00;69.50;;;;;;5094290;28;20191;-79
2021/03/04 01:04:42;;;;;;;34.88;32.00;;;9.00;69.40;;;;;;5094228;28;20203;-79
2021/03/04 01:07:08;;;;;;;33.40;30.55;;;8.80;75.60;;;;;;5094067;28;20199;-79
2021/03/04 01:09:35;;;;;;;32.50;30.00;;;8.70;79.40;;;;;;5096040;28;20223;-79
2021/03/04 01:12:01;;;;;;;32.35;29.88;;;8.60;76.20;;;;;;5096537;28;20221;-79
2021/03/04 01:14:29;;;;;;;31.77;29.27;;;8.60;72.70;;;;;;5094035;28;20205;-79
2021/03/04 01:16:55;;;;;;;33.05;30.70;;;8.60;71.90;;;;;;5093796;28;20255;-79
2021/03/04 01:19:21;;;;;;;33.17;30.77;;;8.70;70.80;;;;;;5093828;28;20222;-79
2021/03/04 01:21:48;;;;;;;31.55;28.85;;;8.70;70.80;;;;;;5093895;28;20195;-79
2021/03/04 01:24:14;;;;;;;31.38;29.25;;;8.60;72.50;;;;;;5093837;28;20202;-79
2021/03/04 01:26:41;;;;;;;31.17;28.80;;;8.60;72.50;;;;;;5093685;28;20577;-79
2021/03/04 01:29:07;;;;;;;32.03;29.63;;;8.70;71.30;;;;;;5093840;28;20219;-79
2021/03/04 01:31:34;;;;;;;32.22;29.80;;;8.60;73.50;;;;;;5093629;28;20222;-79
2021/03/04 01:34:01;;;;;;;32.22;29.63;;;8.60;71.00;;;;;;5093719;28;20191;-79
2021/03/04 01:36:27;;;;;;;31.13;29.00;;;8.60;70.00;;;;;;5093462;28;20203;-79
2021/03/04 01:38:53;;;;;;;32.00;29.58;;;8.60;69.50;;;;;;5093169;28;20214;-79
2021/03/04 01:41:20;;;;;;;32.20;29.42;;;8.60;69.20;;;;;;5093569;28;20233;-79
2021/03/04 01:43:46;;;;;;;31.48;29.20;;;8.60;70.70;;;;;;5093422;28;20202;-79
2021/03/04 01:46:13;;;;;;;32.35;29.95;;;8.60;70.80;;;;;;5093371;28;20195;-79
2021/03/04 01:48:41;;;;;;;31.50;29.17;;;8.60;75.80;;;;;;5093396;28;20219;-79
2021/03/04 01:51:07;;;;;;;31.30;28.70;;;8.60;71.70;;;;;;5093252;28;20219;-79
2021/03/04 01:53:33;;;;;;;32.15;29.63;;;8.60;69.70;;;;;;5093383;28;20195;-79
2021/03/04 01:56:00;;;;;;;29.30;27.40;;;8.60;69.00;;;;;;5093173;28;20553;-79
2021/03/04 01:58:27;;;;;;;32.47;29.45;;;8.70;68.30;;;;;;5093330;28;20225;-79
2021/03/04 02:00:54;;;;;;;30.45;28.40;;;8.70;68.10;;;;;;5093307;28;20332;-79
2021/03/04 02:03:21;;;;;;;31.30;28.85;;;8.70;67.80;;;;;;5093046;28;20262;-79
2021/03/04 02:05:49;;;;;;;30.00;27.90;;;8.70;67.30;;;;;;5093078;28;20680;-79
2021/03/04 02:08:21;;;;;;;30.65;28.30;;;8.80;68.10;;;;;;5093056;28;20235;-79
2021/03/04 02:10:52;;;;;;;30.98;28.50;;;8.80;68.20;;;;;;5094015;28;20219;-79
2021/03/04 02:13:26;;;;;;;30.95;28.63;;;8.70;68.00;;;;;;5093220;28;20301;-79
2021/03/04 02:16:00;;;;;;;29.98;27.88;;;8.70;67.00;;;;;;5092859;28;20628;-80
2021/03/04 02:18:29;;;;;;;31.05;28.75;;;8.70;66.80;;;;;;5093049;28;20219;-79
2021/03/04 02:21:25;;;;;;;30.35;28.20;;;8.70;66.40;;;;;;5092928;28;20191;-79
2021/03/04 02:24:29;;;;;;;31.45;29.20;;;8.70;67.00;;;;;;5092948;28;20802;-79
2021/03/04 02:27:10;;;;;;;30.55;28.35;;;8.80;66.60;;;;;;5069914;28;20572;-79
2021/03/04 02:29:44;;;;;;;30.50;28.30;;;8.90;66.20;;;;;;5093028;28;20692;-79
2021/03/04 02:32:11;;;;;;;31.52;29.15;;;8.80;66.60;;;;;;5093762;28;20656;-79
2021/03/04 02:34:45;;;;;;;30.27;27.98;;;8.70;67.00;;;;;;5093260;28;20277;-79
2021/03/04 02:37:14;;;;;;;30.00;27.95;;;8.70;67.20;;;;;;5092641;28;20557;-79
2021/03/04 02:39:44;;;;;;;29.42;27.30;;;8.70;67.40;;;;;;5092474;28;20219;-79
2021/03/04 02:42:14;;;;;;;30.10;27.95;;;8.60;67.60;;;;;;5092916;28;20192;-79
2021/03/04 02:44:41;;;;;;;31.27;28.85;;;8.60;67.90;;;;;;5092392;28;20195;-79
2021/03/04 02:47:08;;;;;;;30.65;28.70;;;8.40;73.00;;;;;;5092409;28;20665;-79
2021/03/04 02:49:35;;;;;;;32.05;29.35;;;8.40;71.00;;;;;;5092663;28;20598;-79
2021/03/04 02:52:02;;;;;;;30.42;28.13;;;8.40;69.50;;;;;;5096698;28;20222;-79
2021/03/04 02:54:29;;;;;;;30.50;28.35;;;8.50;69.10;;;;;;5096904;28;20558;-79
2021/03/04 02:56:57;;;;;;;30.80;28.58;;;8.50;68.80;;;;;;5096403;28;20196;-79
2021/03/04 02:59:26;;;;;;;31.88;29.38;;;8.50;68.80;;;;;;5096655;28;20215;-79
2021/03/04 03:01:53;;;;;;;30.60;28.23;;;8.40;69.80;;;;;;5096685;28;20229;-79
2021/03/04 03:04:20;;;;;;;31.05;28.85;;;8.40;71.50;;;;;;5096635;28;20203;-79
2021/03/04 03:06:47;;;;;;;30.63;28.42;;;8.30;70.60;;;;;;5097722;28;20202;-79
2021/03/04 03:09:14;;;;;;;29.88;28.05;;;8.30;75.70;;;;;;5098872;28;20693;-79
2021/03/04 03:11:41;;;;;;;31.30;28.88;;;8.20;72.30;;;;;;5096394;28;20764;-79
2021/03/04 03:14:09;;;;;;;30.65;28.38;;;8.20;70.70;;;;;;5096569;28;20195;-79
2021/03/04 03:16:36;;;;;;;31.10;28.80;;;8.20;70.20;;;;;;5096277;28;20202;-79
2021/03/04 03:19:03;;;;;;;30.98;28.88;;;8.20;70.00;;;;;;5096168;28;20219;-79
2021/03/04 03:21:29;;;;;;;29.77;27.65;;;8.20;69.70;;;;;;5096244;28;20202;-79
2021/03/04 03:23:56;;;;;;;30.80;28.58;;;8.20;69.70;;;;;;5096338;28;20203;-79
2021/03/04 03:26:22;;;;;;;32.08;29.40;;;8.20;72.50;;;;;;5096101;28;20221;-79
2021/03/04 03:28:49;;;;;;;31.50;29.05;;;8.10;73.40;;;;;;5096192;28;20219;-79
2021/03/04 03:31:18;;;;;;;30.38;28.13;;;8.10;73.50;;;;;;5096077;28;20241;-76
2021/03/04 03:33:45;;;;;;;30.52;28.23;;;8.20;72.30;;;;;;5096038;28;20199;-76
2021/03/04 03:36:12;;;;;;;30.95;28.80;;;8.10;72.80;;;;;;5095839;28;20679;-79
2021/03/04 03:38:39;;;;;;;30.38;28.02;;;8.00;72.00;;;;;;5095872;28;20222;-79
2021/03/04 03:41:07;;;;;;;29.80;27.80;;;8.00;71.20;;;;;;5096055;28;20723;-79
2021/03/04 03:43:34;;;;;;;30.65;28.17;;;8.10;70.20;;;;;;5097754;28;20203;-79
2021/03/04 03:46:02;;;;;;;30.13;27.70;;;8.20;69.80;;;;;;5096714;28;20203;-79
2021/03/04 03:48:29;;;;;;;31.55;29.25;;;8.20;70.10;;;;;;5096244;28;20219;-79
2021/03/04 03:50:57;;;;;;;32.65;29.65;;;8.20;70.20;;;;;;5095825;28;20813;-79
2021/03/04 03:53:26;;;;;;;32.05;29.65;;;8.10;71.20;;;;;;5095681;28;20683;-79
2021/03/04 03:55:55;;;;;;;31.65;29.30;;;8.20;72.00;;;;;;5098410;28;20665;-78
2021/03/04 03:58:25;;;;;;;30.27;27.85;;;8.10;71.90;;;;;;5103947;28;20219;-79
2021/03/04 04:00:55;;;;;;;31.52;29.38;;;8.00;70.40;;;;;;5104126;28;20709;-79
2021/03/04 04:03:22;;;;;;;31.35;28.92;;;8.10;69.70;;;;;;5103293;28;20203;-79
2021/03/04 04:05:49;;;;;;;29.73;27.70;;;8.10;69.70;;;;;;5103595;28;20203;-79
2021/03/04 04:08:18;;;;;;;30.17;27.85;;;8.00;71.20;;;;;;5104192;28;20223;-79
2021/03/04 04:10:46;;;;;;;32.80;30.20;;;8.00;73.70;;;;;;5102315;28;20215;-79
2021/03/04 04:13:15;;;;;;;32.38;30.08;;;8.00;76.90;;;;;;5100752;28;20191;-79
2021/03/04 04:15:41;;;;;;;32.45;30.05;;;8.00;78.90;;;;;;5101007;28;20257;-79
2021/03/04 04:18:08;;;;;;;30.05;27.92;;;7.90;76.70;;;;;;5101995;28;20222;-79
2021/03/04 04:20:36;;;;;;;30.75;28.45;;;7.90;73.40;;;;;;5104035;28;20199;-79
2021/03/04 04:23:03;;;;;;;31.33;29.13;;;8.00;72.30;;;;;;5103227;28;20197;-79
2021/03/04 04:25:30;;;;;;;32.00;29.80;;;8.00;71.70;;;;;;5103685;28;20191;-79
2021/03/04 04:27:57;;;;;;;30.38;27.98;;;8.00;71.40;;;;;;5103944;28;20721;-79
2021/03/04 04:30:25;;;;;;;32.30;30.10;;;7.90;75.30;;;;;;5101875;28;20203;-79
2021/03/04 04:32:52;;;;;;;30.90;28.63;;;7.80;76.20;;;;;;5100474;28;20230;-79
2021/03/04 04:35:19;;;;;;;30.15;27.95;;;7.80;74.80;;;;;;5098172;28;20201;-79
2021/03/04 04:37:45;;;;;;;30.52;28.08;;;7.80;72.70;;;;;;5094426;28;20206;-79
2021/03/04 04:40:12;;;;;;;31.17;28.50;;;7.80;71.50;;;;;;5094814;28;20206;-79
2021/03/04 04:42:40;;;;;;;29.63;27.13;;;7.80;71.10;;;;;;5094736;28;20198;-79
2021/03/04 04:45:09;;;;;;;29.85;27.55;;;7.80;70.70;;;;;;5094458;28;20203;-79
2021/03/04 04:47:35;;;;;;;32.63;29.42;;;7.80;70.40;;;;;;5094487;28;20213;-79
2021/03/04 04:50:02;;;;;;;30.92;28.30;;;7.90;70.00;;;;;;5094452;28;20240;-79
2021/03/04 04:52:28;;;;;;;30.75;27.98;;;7.90;70.60;;;;;;5094509;28;20222;-79
2021/03/04 04:54:54;;;;;;;31.75;29.33;;;7.90;72.10;;;;;;5094502;28;20191;-79
2021/03/04 04:57:22;;;;;;;30.42;28.05;;;7.80;71.90;;;;;;5094437;28;20289;-79
2021/03/04 04:59:49;;;;;;;30.75;28.17;;;7.90;70.40;;;;;;5094406;28;20215;-79
2021/03/04 05:02:15;;;;;;;31.42;29.23;;;7.90;69.30;;;;;;5095501;28;20216;-79
2021/03/04 05:04:42;;;;;;;30.33;27.90;;;8.00;68.50;;;;;;5097546;28;20260;-79
2021/03/04 05:07:08;;;;;;;30.25;27.75;;;8.00;67.80;;;;;;5097002;28;20546;-79
2021/03/04 05:09:34;;;;;;;30.30;28.10;;;7.90;67.80;;;;;;5094674;28;20315;-79
2021/03/04 05:12:01;;;;;;;31.25;28.67;;;8.00;67.40;;;;;;5094195;28;20306;-79
2021/03/04 05:14:27;;;;;;;29.45;27.35;;;8.10;67.50;;;;;;5093958;28;20201;-79
2021/03/04 05:16:54;;;;;;;30.35;28.20;;;8.10;68.90;;;;;;5094519;28;20253;-79
2021/03/04 05:19:20;;;;;;;30.83;28.73;;;8.00;69.30;;;;;;5097494;28;20226;-79
2021/03/04 05:21:47;;;;;;;29.52;27.50;;;8.00;68.30;;;;;;5099979;28;20739;-79
2021/03/04 05:24:13;;;;;;;30.33;27.92;;;8.00;67.70;;;;;;5098555;28;20199;-79
2021/03/04 05:26:39;;;;;;;30.50;28.10;;;7.90;67.80;;;;;;5093813;28;20199;-79
2021/03/04 05:29:06;;;;;;;29.92;27.75;;;7.90;67.60;;;;;;5093948;28;20248;-79
2021/03/04 05:31:32;;;;;;;30.80;28.40;;;7.90;68.10;;;;;;5093665;28;20560;-79
2021/03/04 05:33:59;;;;;;;29.30;27.00;;;8.00;67.50;;;;;;5093988;28;20286;-79
2021/03/04 05:36:26;;;;;;;30.58;28.20;;;8.00;67.70;;;;;;5093708;28;20191;-79
2021/03/04 05:38:52;;;;;;;30.35;27.90;;;8.10;66.90;;;;;;5093470;28;20215;-79
2021/03/04 05:41:22;;;;;;;29.48;27.33;;;8.00;66.50;;;;;;5093777;28;20708;-79
2021/03/04 05:43:49;;;;;;;29.70;27.60;;;8.00;66.60;;;;;;5093599;28;20203;-79
2021/03/04 05:46:19;;;;;;;30.95;28.65;;;8.00;66.40;;;;;;5093468;28;20199;-79
2021/03/04 05:48:48;;;;;;;30.73;28.48;;;8.00;70.60;;;;;;5093570;28;20227;-79
2021/03/04 05:51:18;;;;;;;29.90;27.80;;;8.00;67.90;;;;;;5093468;28;20222;-79
2021/03/04 05:53:47;;;;;;;30.70;28.40;;;7.90;68.90;;;;;;5093461;28;20210;-79
2021/03/04 05:56:16;;;;;;;30.05;27.83;;;8.00;67.40;;;;;;5093146;28;20599;-79
2021/03/04 05:58:43;;;;;;;30.65;28.35;;;8.00;66.90;;;;;;5093294;28;20211;-79
2021/03/04 06:01:10;;;;;;;33.65;31.00;;;8.00;66.30;;;;;;5093247;28;20675;-79
2021/03/04 06:03:37;;;;;;;31.35;28.83;;;8.00;66.10;;;;;;5093209;28;20203;-79
2021/03/04 06:06:03;;;;;;;30.95;28.52;;;7.90;66.40;;;;;;5093098;28;20676;-79
2021/03/04 06:08:31;;;;;;;30.17;27.98;;;7.90;66.60;;;;;;5093016;28;20238;-79
2021/03/04 06:10:57;;;;;;;31.33;29.10;;;7.90;67.20;;;;;;5093154;28;20219;-79
2021/03/04 06:13:24;;;;;;;30.40;28.10;;;7.90;67.60;;;;;;5093131;28;20194;-79
2021/03/04 06:15:52;;;;;;;32.67;30.38;;;7.80;68.30;;;;;;5093091;28;20199;-79
2021/03/04 06:18:19;;;;;;;31.27;28.98;;;7.80;67.80;;;;;;5092955;28;20222;-79
2021/03/04 06:20:45;;;;;;;31.83;29.10;;;7.90;67.50;;;;;;5093103;28;20217;-79
2021/03/04 06:23:12;;;;;;;33.53;30.83;;;7.80;67.50;;;;;;5093065;28;20198;-79
2021/03/04 06:25:39;;;;;;;32.40;29.90;;;7.80;67.50;;;;;;5092085;28;20201;-79
2021/03/04 06:28:06;;;;;;;29.90;27.83;;;7.90;67.40;;;;;;5092894;28;20276;-79
2021/03/04 06:30:38;;;;;;;33.00;30.30;;;7.90;67.80;;;;;;5092954;28;20202;-79
2021/03/04 06:33:06;;;;;;;31.50;29.20;;;7.90;69.60;;;;;;5092816;28;20203;-79
2021/03/04 06:35:34;;;;;;;32.28;29.77;;;7.90;69.00;;;;;;5092799;28;20675;-76
2021/03/04 06:38:12;;;;;;;33.10;30.55;;;7.90;68.50;;;;;;5092487;28;20195;-77
2021/03/04 06:40:40;;;;;;;32.63;30.00;;;8.00;67.60;;;;;;5092763;28;20571;-77
2021/03/04 06:43:06;;;;;;;32.22;29.83;;;7.90;68.00;;;;;;5092395;28;20207;-77
2021/03/04 06:45:35;;;;;;;32.90;30.67;;;8.00;67.40;;;;;;5092643;28;20203;-77
2021/03/04 06:48:09;;;;;;;34.08;30.98;;;8.10;66.70;;;;;;5093272;28;20199;-80
2021/03/04 06:50:36;;;;;;;31.52;28.98;;;8.20;66.20;;;;;;5095576;28;20683;-79
2021/03/04 06:53:16;;;;;;;33.85;31.15;;;8.20;66.80;;;;;;5105384;28;20580;-80
2021/03/04 06:55:52;;;;;;;34.38;31.60;;;8.20;67.20;;;;;;5097243;28;20259;-79
2021/03/04 06:58:29;;;;;;;31.98;29.55;;;8.30;67.30;;;;;;5092717;28;20283;-77
2021/03/04 07:01:17;;;;;;;32.15;29.63;;;8.40;66.90;;;;;;5092554;28;20237;-77
2021/03/04 07:03:45;;;;;;;32.80;30.15;;;8.50;67.10;;;;;;5089553;28;20729;-79
2021/03/04 07:06:13;;;;;;;33.30;30.38;;;8.60;66.70;;;;;;5094233;28;20201;-79
2021/03/04 07:08:41;;;;;;;34.95;31.85;;;8.70;65.70;;;;;;5094142;28;20223;-79
2021/03/04 07:11:10;;;;;;;34.47;31.00;;;8.70;66.20;;;;;;5092995;28;20220;-79
2021/03/04 07:13:38;;;;;;;33.67;30.70;;;8.80;65.90;;;;;;5092712;28;20247;-79
2021/03/04 07:16:06;;;;;;;32.17;29.63;;;8.80;65.90;;;;;;5092581;28;20749;-79
2021/03/04 07:18:38;;;;;;;33.20;30.25;;;8.90;65.30;;;;;;5092741;28;20223;-79
2021/03/04 07:21:09;;;;;;;32.70;30.30;;;9.00;65.00;;;;;;5092581;28;20187;-79
2021/03/04 07:23:38;;;;;;;32.33;30.10;;;9.10;65.60;;;;;;5092635;28;20242;-79
2021/03/04 07:26:05;;;;;;;33.22;30.63;;;9.30;66.20;;;;;;5092377;28;20260;-79
2021/03/04 07:28:33;;;;;;;33.38;30.67;;;9.40;65.90;;;;;;5092290;28;20216;-79
2021/03/04 07:31:01;;;;;;;35.13;32.60;;;9.50;64.50;;;;;;5092315;28;20254;-79
2021/03/04 07:33:28;;;;;;;33.90;31.17;;;9.70;63.60;;;;;;5092420;28;20206;-79
2021/03/04 07:35:56;;;;;;;32.75;30.35;;;9.80;62.50;;;;;;5092953;28;20217;-79
2021/03/04 07:38:29;;;;;;;32.97;30.47;;;9.90;62.20;;;;;;5096351;28;20223;-79
2021/03/04 07:41:07;;;;;;;33.20;30.50;;;10.00;63.10;;;;;;5096204;28;20533;-79
2021/03/04 07:43:48;;;;;;;34.42;31.52;;;10.20;62.70;;;;;;5096237;28;20456;-79
2021/03/04 07:46:27;;;;;;;31.73;29.40;;;10.40;60.60;;;;;;5096191;28;20282;-79
2021/03/04 07:48:53;;;;;;;33.07;30.47;;;10.50;61.80;;;;;;5095951;28;20553;-79
2021/03/04 07:51:20;;;;;;;33.03;30.63;;;10.70;60.50;;;;;;5095777;28;20477;-79
2021/03/04 07:53:48;;;;;;;36.23;32.83;;;10.90;59.40;;;;;;5096045;28;20542;-79
2021/03/04 07:56:27;;;;;;;33.30;30.83;;;10.90;59.20;;;;;;5095888;28;20532;-79
2021/03/04 07:58:56;;;;;;;34.60;31.07;;;11.10;58.50;;;;;;5101516;28;20986;-79
2021/03/04 08:01:22;;;;;;;32.77;29.97;;;11.10;58.20;;;;;;5107387;28;20460;-79
2021/03/04 08:03:50;;;;;;;33.40;30.77;;;11.20;58.00;;;;;;5106592;28;20457;-79
2021/03/04 08:06:18;;;;;;;34.47;31.67;;;11.20;59.00;;;;;;5108097;28;20455;-79
2021/03/04 08:08:46;;;;;;;35.00;32.07;;;11.30;57.90;;;;;;5110496;28;20473;-79
2021/03/04 08:11:24;;;;;;;34.10;31.40;;;11.40;57.00;;;;;;5109676;28;20479;-79
2021/03/04 08:13:51;;;;;;;32.90;30.50;;;11.50;57.00;;;;;;5111318;28;20452;-79
2021/03/04 08:16:18;;;;;;;33.93;31.33;;;11.60;56.30;;;;;;5104659;28;20817;-77
2021/03/04 08:18:52;;;;;;;33.93;31.53;;;11.80;55.40;;;;;;5095076;28;20982;-77
2021/03/04 08:21:19;;;;;;;32.83;30.23;;;11.90;54.90;;;;;;5095609;28;20964;-78
2021/03/04 08:23:45;;;;;;;32.03;29.73;;;12.00;54.20;;;;;;5095212;28;20455;-78
2021/03/04 08:26:20;;;;;;;32.83;30.20;;;12.10;53.40;;;;;;5094881;28;20449;-78
2021/03/04 08:28:48;;;;;;;32.13;29.63;;;12.40;52.30;;;;;;5094982;28;20475;-78
2021/03/04 08:31:15;;;;;;;32.17;29.77;;;12.40;51.80;;;;;;5095079;28;20473;-78
2021/03/04 08:33:42;;;;;;;32.20;29.80;;;12.50;51.50;;;;;;5095053;28;20460;-78
2021/03/04 08:36:09;;;;;;;33.67;31.13;;;12.50;52.50;;;;;;5094869;28;20449;-78
2021/03/04 08:38:40;;;;;;;32.10;29.60;;;12.60;51.90;;;;;;5094807;28;20548;-78
2021/03/04 08:41:06;;;;;;;34.87;31.97;;;12.70;52.40;;;;;;5095114;28;20463;-78
2021/03/04 08:43:33;;;;;;;33.03;30.60;;;12.80;50.80;;;;;;5094840;28;20449;-78
2021/03/04 08:46:01;;;;;;;34.40;31.70;;;13.00;50.60;;;;;;5094746;28;20461;-78
2021/03/04 08:48:27;;;;;;;32.57;30.17;;;13.20;50.30;;;;;;5098776;28;20536;-78
2021/03/04 08:50:58;;;;;;;33.57;31.13;;;13.40;50.00;;;;;;5101260;28;21054;-78
2021/03/04 08:53:27;;;;;;;33.50;30.80;;;13.40;49.60;;;;;;5097536;28;20477;-78
2021/03/04 08:55:55;;;;;;;33.47;30.70;;;13.50;49.40;;;;;;5094630;28;20449;-78
2021/03/04 08:58:23;;;;;;;32.17;29.50;;;13.70;49.60;;;;;;5094542;28;20842;-78
2021/03/04 09:00:51;;;;;;;31.37;29.07;;;13.70;48.80;;;;;;5101070;28;20977;-79
2021/03/04 09:03:18;;;;;;;33.57;30.97;;;13.80;48.40;;;;;;5098411;28;20515;-78
2021/03/04 09:05:44;;;;;;;33.73;31.13;;;13.90;48.50;;;;;;5094226;28;20457;-78
2021/03/04 09:08:13;;;;;;;31.87;29.40;;;14.00;48.50;;;;;;5094121;28;20465;-78
2021/03/04 09:10:41;;;;;;;32.43;30.07;;;14.10;48.30;;;;;;5094198;28;20475;-78
2021/03/04 09:13:08;;;;;;;33.43;30.80;;;14.20;49.10;;;;;;5094194;28;20446;-78
2021/03/04 09:15:34;;;;;;;33.27;30.60;;;14.30;48.60;;;;;;5093945;28;20950;-78
2021/03/04 09:18:06;;;;;;;31.47;29.20;;;14.20;47.90;;;;;;5093934;28;20449;-78
2021/03/04 09:20:33;;;;;;;33.27;30.80;;;14.30;47.90;;;;;;5094102;28;20453;-78
2021/03/04 09:23:00;;;;;;;32.47;29.97;;;14.20;47.80;;;;;;5093963;28;20460;-78
2021/03/04 09:25:28;;;;;;;33.40;30.73;;;14.30;47.70;;;;;;5093877;28;20874;-79
2021/03/04 09:27:56;;;;;;;32.57;30.03;;;14.30;47.80;;;;;;5093885;28;20458;-78
2021/03/04 09:30:28;;;;;;;32.97;30.23;;;14.40;48.00;;;;;;5093940;28;20461;-78
2021/03/04 09:32:55;;;;;;;32.60;30.00;;;14.50;47.80;;;;;;5093722;28;21041;-78
2021/03/04 09:35:22;;;;;;;32.63;29.77;;;14.40;47.90;;;;;;5093890;28;20454;-78
2021/03/04 09:37:48;;;;;;;32.27;29.33;;;14.50;48.00;;;;;;5093206;28;20827;-78
2021/03/04 09:40:28;;;;;;;34.43;31.33;;;14.50;48.30;;;;;;5093899;28;20522;-78
2021/03/04 09:42:54;;;;;;;33.40;30.73;;;14.60;48.40;;;;;;5093748;28;20938;-78
2021/03/04 09:45:21;;;;;;;33.27;30.07;;;14.50;48.20;;;;;;5093348;28;20468;-79
2021/03/04 09:47:49;;;;;;;33.33;30.73;;;14.50;48.60;;;;;;5093347;28;20465;-78
2021/03/04 09:50:19;;;;;;;32.60;30.10;;;14.40;48.90;;;;;;5093717;28;20445;-78
2021/03/04 09:52:46;;;;;;;32.30;29.80;;;14.40;49.00;;;;;;5093419;28;20477;-78
2021/03/04 09:55:15;;;;;;;32.77;30.00;;;14.50;49.00;;;;;;5093383;28;20449;-78
2021/03/04 09:57:44;;;;;;;32.90;30.50;;;14.50;48.80;;;;;;5093255;28;20963;-78
2021/03/04 10:00:28;;;;;;;36.07;32.37;;;14.60;49.00;;;;;;5092385;28;20927;-78
2021/03/04 10:02:56;;;;;;;34.00;30.97;;;14.70;48.80;;;;;;5093301;28;20453;-78
2021/03/04 10:05:25;;;;;;;33.63;30.73;;;14.70;48.70;;;;;;5093234;28;21002;-78
2021/03/04 10:07:56;;;;;;;32.50;29.77;;;14.60;48.90;;;;;;5092977;28;20453;-78
2021/03/04 10:10:23;;;;;;;31.90;29.40;;;14.80;48.50;;;;;;5093168;28;20468;-78
2021/03/04 10:12:52;;;;;;;33.00;30.40;;;14.80;48.60;;;;;;5092966;28;20481;-78
2021/03/04 10:15:29;;;;;;;32.90;30.00;;;14.80;48.80;;;;;;5093106;28;20453;-78
2021/03/04 10:17:56;;;;;;;33.23;30.43;;;14.90;48.90;;;;;;5093211;28;20934;-79
2021/03/04 10:20:23;;;;;;;33.50;30.40;;;15.00;49.20;;;;;;5093030;28;20449;-78
2021/03/04 10:22:50;;;;;;;32.87;29.87;;;15.10;49.40;;;;;;5093139;28;20476;-78
2021/03/04 10:25:17;;;;;;;34.77;31.37;;;15.20;49.40;;;;;;5092950;28;20483;-78
2021/03/04 10:27:43;;;;;;;34.97;31.57;;;15.30;49.20;;;;;;5092767;28;20463;-78
2021/03/04 10:30:13;;;;;;;32.97;30.03;;;15.30;49.20;;;;;;5093127;28;20445;-78
2021/03/04 10:32:40;;;;;;;33.80;30.90;;;15.30;49.30;;;;;;5092956;28;20465;-79
2021/03/04 10:35:08;;;;;;;33.40;30.70;;;15.30;49.20;;;;;;5092865;28;20456;-78
2021/03/04 10:37:35;;;;;;;34.27;31.57;;;15.40;49.40;;;;;;5092618;28;20454;-78
2021/03/04 10:40:03;;;;;;;33.93;31.40;;;15.40;49.20;;;;;;5092359;28;20477;-78
2021/03/04 10:42:29;;;;;;;35.67;32.40;;;15.50;49.30;;;;;;5093237;28;20446;-79
2021/03/04 10:44:59;;;;;;;34.73;31.97;;;15.40;49.70;;;;;;5092550;28;20552;-79
2021/03/04 10:47:26;;;;;;;37.00;33.83;;;15.50;49.30;;;;;;5092587;28;20449;-78
2021/03/04 10:49:53;;;;;;;36.90;33.40;;;15.70;49.40;;;;;;5092710;28;20480;-78
2021/03/04 10:52:19;;;;;;;36.70;33.30;;;15.70;49.50;;;;;;5092584;28;20823;-79
2021/03/04 10:54:46;;;;;;;35.73;33.03;;;15.80;49.70;;;;;;5092878;28;20449;-79
2021/03/04 10:57:12;;;;;;;39.07;35.53;;;15.80;49.80;;;;;;5093482;28;20457;-78
2021/03/04 10:59:39;;;;;;;37.37;34.10;;;15.80;49.60;;;;;;5101544;28;20497;-79
2021/03/04 11:02:05;;;;;;;35.90;33.00;;;15.90;49.50;;;;;;5093413;28;20524;-79
2021/03/04 11:04:33;;;;;;;36.00;32.80;;;16.10;49.00;;;;;;5092693;28;20943;-78
2021/03/04 11:07:00;;;;;;;36.37;33.47;;;16.10;49.00;;;;;;5092518;28;20457;-78
2021/03/04 11:09:26;;;;;;;35.37;32.20;;;16.20;48.40;;;;;;5092564;28;20564;-79
2021/03/04 11:11:52;;;;;;;36.90;33.77;;;16.20;48.00;;;;;;5094763;28;20512;-79
2021/03/04 11:14:19;;;;;;;35.20;32.07;;;16.30;48.50;;;;;;5097007;28;20457;-78
2021/03/04 11:16:45;;;;;;;35.20;32.27;;;16.30;48.70;;;;;;5096809;28;20506;-79
2021/03/04 11:19:12;;;;;;;35.73;32.57;;;16.50;48.00;;;;;;5096643;28;20553;-78
2021/03/04 11:21:40;;;;;;;35.67;32.40;;;16.60;47.70;;;;;;5096781;28;20509;-79
2021/03/04 11:24:07;;;;;;;35.40;32.40;;;16.70;47.30;;;;;;5097330;28;20466;-79
2021/03/04 11:26:37;;;;;;;34.87;31.97;;;16.90;47.30;;;;;;5097411;28;20453;-79
2021/03/04 11:29:04;;;;;;;35.93;32.83;;;17.10;46.90;;;;;;5097187;28;20522;-79
2021/03/04 11:31:31;;;;;;;36.13;32.90;;;17.20;47.00;;;;;;5096994;28;21015;-79
2021/03/04 11:33:57;;;;;;;37.13;33.73;;;17.10;46.90;;;;;;5097256;28;20449;-79
2021/03/04 11:36:23;;;;;;;37.10;34.10;;;17.00;47.20;;;;;;5096836;28;20455;-79
2021/03/04 11:38:51;;;;;;;36.97;33.83;;;16.90;47.80;;;;;;5096326;28;20480;-79
2021/03/04 11:41:17;;;;;;;36.63;33.83;;;16.70;47.70;;;;;;5095999;28;20473;-78
2021/03/04 11:43:43;;;;;;;37.50;33.60;;;16.40;48.30;;;;;;5095535;28;20460;-78
2021/03/04 11:46:11;;;;;;;35.93;32.93;;;16.40;48.40;;;;;;5095666;28;20451;-78
2021/03/04 11:48:38;;;;;;;37.10;34.10;;;16.50;48.20;;;;;;5095701;28;20464;-78
2021/03/04 11:51:04;;;;;;;37.17;33.63;;;16.60;48.20;;;;;;5095918;28;20460;-78
2021/03/04 11:53:30;;;;;;;37.47;34.47;;;16.60;47.90;;;;;;5095785;28;20499;-78
2021/03/04 11:55:58;;;;;;;36.37;33.50;;;16.70;47.90;;;;;;5096147;28;20459;-78
2021/03/04 11:58:25;;;;;;;35.90;33.07;;;16.80;47.60;;;;;;5101241;28;20491;-78
2021/03/04 12:00:52;;;;;;;37.23;33.67;;;16.90;47.40;;;;;;5100940;28;21012;-78
2021/03/04 12:03:18;;;;;;;37.73;34.20;;;17.00;47.00;;;;;;5095626;28;20942;-78
2021/03/04 12:05:44;;;;;;;37.30;34.27;;;17.10;47.10;;;;;;5095516;28;20499;-78
2021/03/04 12:08:11;;;;;;;36.60;33.37;;;17.30;46.40;;;;;;5095397;28;20881;-79
2021/03/04 12:10:37;;;;;;;37.37;34.27;;;17.50;46.40;;;;;;5095446;28;20512;-79
2021/03/04 12:13:05;;;;;;;38.30;35.00;;;17.50;46.40;;;;;;5095246;28;20473;-78
2021/03/04 12:15:31;;;;;;;37.80;34.67;;;17.40;47.30;;;;;;5095102;28;20964;-78
2021/03/04 12:17:58;;;;;;;35.97;32.87;;;17.20;47.50;;;;;;5095086;28;20452;-78
2021/03/04 12:20:24;;;;;;;37.40;33.50;;;17.00;47.00;;;;;;5095194;28;20532;-78
2021/03/04 12:22:50;;;;;;;34.40;31.33;;;16.90;47.20;;;;;;5094105;28;20935;-78
2021/03/04 12:25:17;;;;;;;36.60;32.93;;;17.00;46.80;;;;;;5095165;28;20858;-78
2021/03/04 12:27:43;;;;;;;35.00;32.13;;;17.20;46.20;;;;;;5094796;28;20955;-79
2021/03/04 12:30:12;;;;;;;34.80;31.87;;;17.40;46.00;;;;;;5095078;28;20452;-78
2021/03/04 12:32:40;;;;;;;34.37;31.63;;;17.40;45.80;;;;;;5094988;28;20469;-78
2021/03/04 12:35:07;;;;;;;34.80;31.67;;;17.60;46.60;;;;;;5094934;28;20808;-78
2021/03/04 12:37:34;;;;;;;33.23;30.80;;;17.90;45.00;;;;;;5094680;28;20449;-78